Time;durP1;ratioP1;P1;durP2;ratioP2;P2;SDS_P1;SDS_P2;PMS_P1;PMS_P2;Temp;Humidity;BMP_temperature;BMP_pressure;BME280_temperature;BME280_humidity;BME280_pressure;Samples;Min_cycle;Max_cycle;Signal;HPM_P1;HPM_P2
2022/12/01 00:00:57;;;;;;;5.60;5.20;;;19.10;42.70;;;;;;4983387;28;20989;-61
2022/12/01 00:03:22;;;;;;;5.70;5.33;;;19.10;42.70;;;;;;4988664;28;20520;-62
2022/12/01 00:05:58;;;;;;;6.17;5.60;;;19.10;42.60;;;;;;4983246;28;20224;-61
2022/12/01 00:08:23;;;;;;;5.20;4.80;;;19.10;42.60;;;;;;4981746;28;20219;-60
2022/12/01 00:10:49;;;;;;;4.83;4.53;;;19.20;42.70;;;;;;4977627;28;20881;-60
2022/12/01 00:13:14;;;;;;;6.00;5.40;;;19.10;42.60;;;;;;4980747;28;20224;-61
2022/12/01 00:15:40;;;;;;;5.60;5.10;;;19.10;42.60;;;;;;4984338;28;20219;-61
2022/12/01 00:18:05;;;;;;;5.30;5.00;;;19.10;42.70;;;;;;4999711;28;20223;-60
2022/12/01 00:20:34;;;;;;;5.43;5.10;;;19.10;42.60;;;;;;4984084;28;20240;-61
2022/12/01 00:23:00;;;;;;;6.03;5.63;;;19.10;42.70;;;;;;4983532;28;20282;-60
2022/12/01 00:25:26;;;;;;;6.03;5.50;;;19.10;42.60;;;;;;4987970;28;20425;-60
2022/12/01 00:27:52;;;;;;;5.30;5.00;;;19.10;42.60;;;;;;4981276;28;20234;-62
2022/12/01 00:30:20;;;;;;;7.10;6.60;;;19.10;42.60;;;;;;4989346;28;20454;-61
2022/12/01 00:32:46;;;;;;;6.33;5.83;;;19.10;43.00;;;;;;4974919;28;20217;-60
2022/12/01 00:35:13;;;;;;;6.00;5.57;;;19.10;42.60;;;;;;4987547;28;20464;-60
2022/12/01 00:37:38;;;;;;;6.77;6.17;;;19.10;42.60;;;;;;4994631;28;20436;-60
2022/12/01 00:40:05;;;;;;;5.63;5.23;;;19.10;42.60;;;;;;4990095;28;21259;-60
2022/12/01 00:42:31;;;;;;;5.70;5.30;;;19.10;42.60;;;;;;4979594;28;20231;-63
2022/12/01 00:44:56;;;;;;;5.63;5.23;;;19.10;42.70;;;;;;4992252;28;20946;-60
2022/12/01 00:47:22;;;;;;;6.50;6.00;;;19.10;42.60;;;;;;4996718;28;20232;-61
2022/12/01 00:49:47;;;;;;;5.43;5.03;;;19.10;42.60;;;;;;4976936;28;20219;-60
2022/12/01 00:52:15;;;;;;;6.13;5.63;;;19.10;42.60;;;;;;4984064;28;20770;-60
2022/12/01 00:54:41;;;;;;;6.00;5.53;;;19.10;42.60;;;;;;4994702;28;20240;-60
2022/12/01 00:57:07;;;;;;;6.00;5.60;;;19.10;42.60;;;;;;4996056;28;20444;-62
2022/12/01 00:59:33;;;;;;;4.93;4.63;;;19.10;42.70;;;;;;4995270;28;20224;-61
2022/12/01 01:01:59;;;;;;;5.90;5.40;;;19.10;42.60;;;;;;4978518;28;21039;-61
2022/12/01 01:04:25;;;;;;;6.20;5.70;;;19.10;42.60;;;;;;4979936;28;20550;-60
2022/12/01 01:06:51;;;;;;;6.20;5.80;;;19.10;42.70;;;;;;4974579;28;20549;-60
2022/12/01 01:09:16;;;;;;;5.90;5.40;;;19.10;42.60;;;;;;4978805;28;20245;-60
2022/12/01 01:11:42;;;;;;;6.17;5.67;;;19.10;42.60;;;;;;4983109;28;20446;-60
2022/12/01 01:14:08;;;;;;;5.77;5.37;;;19.10;42.60;;;;;;4982639;28;20219;-60
2022/12/01 01:16:33;;;;;;;6.57;6.17;;;19.10;42.60;;;;;;4987895;28;20216;-60
2022/12/01 01:18:59;;;;;;;6.10;5.60;;;19.10;42.60;;;;;;5007021;28;20258;-61
2022/12/01 01:21:26;;;;;;;6.00;5.50;;;19.10;42.60;;;;;;5000022;28;20321;-62
2022/12/01 01:23:53;;;;;;;5.73;5.30;;;19.10;42.60;;;;;;4997651;28;20215;-61
2022/12/01 01:26:25;;;;;;;6.00;5.60;;;19.10;42.60;;;;;;4983512;28;20470;-60
2022/12/01 01:28:52;;;;;;;6.63;6.13;;;19.10;42.60;;;;;;4993886;28;20922;-60
2022/12/01 01:31:20;;;;;;;6.80;6.30;;;19.10;42.60;;;;;;4996187;28;20545;-60
2022/12/01 01:33:45;;;;;;;6.73;6.10;;;19.10;42.70;;;;;;4995002;28;20464;-60
2022/12/01 01:36:12;;;;;;;5.80;5.30;;;19.10;42.70;;;;;;4978328;28;20446;-60
2022/12/01 01:38:37;;;;;;;6.00;5.60;;;19.10;42.70;;;;;;4990428;28;20285;-60
2022/12/01 01:41:04;;;;;;;6.33;5.93;;;19.10;42.60;;;;;;4998905;28;20447;-60
2022/12/01 01:43:48;;;;;;;6.37;5.87;;;19.10;42.60;;;;;;4994071;28;20787;-61
2022/12/01 01:46:45;;;;;;;5.80;5.40;;;19.10;42.60;;;;;;4994734;28;21053;-60
2022/12/01 01:49:13;;;;;;;5.67;5.27;;;19.10;42.60;;;;;;4977211;28;20798;-60
2022/12/01 01:51:49;;;;;;;6.63;6.10;;;19.10;42.60;;;;;;4979175;28;20415;-62
2022/12/01 01:54:22;;;;;;;6.10;5.60;;;19.10;42.60;;;;;;4978124;28;20436;-62
2022/12/01 01:56:50;;;;;;;6.17;5.73;;;19.10;42.60;;;;;;4982403;28;20441;-60
2022/12/01 01:59:25;;;;;;;6.53;6.03;;;19.10;42.70;;;;;;4980021;28;20456;-63
2022/12/01 02:02:05;;;;;;;6.10;5.60;;;19.00;42.50;;;;;;4984031;28;20833;-60
2022/12/01 02:04:34;;;;;;;6.67;6.17;;;19.10;42.60;;;;;;4981194;28;20440;-62
2022/12/01 02:07:00;;;;;;;5.60;5.20;;;19.10;42.60;;;;;;4989350;28;20492;-61
2022/12/01 02:09:25;;;;;;;5.93;5.53;;;19.10;42.60;;;;;;4993048;28;20990;-60
2022/12/01 02:11:54;;;;;;;6.13;5.70;;;19.10;42.60;;;;;;4998110;28;20242;-60
2022/12/01 02:14:29;;;;;;;5.93;5.43;;;19.10;42.60;;;;;;5001500;28;21089;-61
2022/12/01 02:17:04;;;;;;;6.00;5.60;;;19.10;42.70;;;;;;4999666;28;20452;-61
2022/12/01 02:20:07;;;;;;;5.90;5.50;;;19.10;42.60;;;;;;4999160;28;20790;-60
2022/12/01 02:22:54;;;;;;;6.20;5.77;;;19.10;42.60;;;;;;4992964;28;20434;-60
2022/12/01 02:25:29;;;;;;;6.60;6.10;;;19.10;42.60;;;;;;4999479;28;20467;-60
2022/12/01 02:28:26;;;;;;;7.00;6.30;;;19.10;42.60;;;;;;4998694;28;20443;-62
2022/12/01 02:31:04;;;;;;;6.47;5.90;;;19.10;42.60;;;;;;4984813;28;20454;-60
2022/12/01 02:33:52;;;;;;;7.50;6.90;;;19.10;42.60;;;;;;5000073;28;20468;-60
2022/12/01 02:36:37;;;;;;;6.97;6.27;;;19.00;42.50;;;;;;4985915;28;20428;-60
2022/12/01 02:39:16;;;;;;;7.63;6.93;;;19.00;42.50;;;;;;4982777;28;20972;-61
2022/12/01 02:41:53;;;;;;;6.63;6.13;;;19.00;42.50;;;;;;4979430;28;20435;-60
2022/12/01 02:44:26;;;;;;;7.00;6.50;;;19.00;42.50;;;;;;4983281;28;20430;-60
2022/12/01 02:47:09;;;;;;;6.80;6.17;;;19.10;42.60;;;;;;4982464;28;20466;-61
2022/12/01 02:49:41;;;;;;;6.80;6.20;;;19.00;42.50;;;;;;4981234;28;20436;-62
2022/12/01 02:52:09;;;;;;;6.07;5.67;;;19.10;42.60;;;;;;4978490;28;20450;-60
2022/12/01 02:54:35;;;;;;;7.50;7.00;;;19.10;42.60;;;;;;4990064;28;20479;-60
2022/12/01 02:57:00;;;;;;;7.00;6.47;;;19.00;42.50;;;;;;4984802;28;20421;-60
2022/12/01 02:59:26;;;;;;;6.27;5.80;;;19.10;42.70;;;;;;4987083;28;20457;-60
2022/12/01 03:02:16;;;;;;;5.90;5.50;;;19.10;42.60;;;;;;4982981;28;20473;-60
2022/12/01 03:04:53;;;;;;;7.40;6.77;;;19.00;42.50;;;;;;4999904;28;20311;-60
2022/12/01 03:07:44;;;;;;;6.60;6.10;;;19.10;42.60;;;;;;4998435;28;20526;-60
2022/12/01 03:10:24;;;;;;;7.33;6.50;;;19.10;42.60;;;;;;4996212;28;20453;-61
2022/12/01 03:12:57;;;;;;;6.87;6.27;;;19.00;42.50;;;;;;4990258;28;20436;-60
2022/12/01 03:15:35;;;;;;;7.67;6.93;;;19.00;42.50;;;;;;4989376;28;20443;-61
2022/12/01 03:18:14;;;;;;;6.90;6.23;;;19.00;42.50;;;;;;4992977;28;20452;-60
2022/12/01 03:21:03;;;;;;;6.87;6.37;;;19.00;42.50;;;;;;4981672;28;20442;-60
2022/12/01 03:23:34;;;;;;;6.90;6.40;;;19.00;42.50;;;;;;5000137;28;20892;-60
2022/12/01 03:26:05;;;;;;;7.90;7.27;;;19.00;42.50;;;;;;4982743;28;20436;-61
2022/12/01 03:28:37;;;;;;;7.27;6.63;;;19.00;42.50;;;;;;4982206;28;20465;-60
2022/12/01 03:31:07;;;;;;;7.80;7.07;;;19.00;42.50;;;;;;4991700;28;20461;-62
2022/12/01 03:33:39;;;;;;;6.47;5.97;;;19.00;42.50;;;;;;4984268;28;20468;-62
2022/12/01 03:36:21;;;;;;;7.53;6.83;;;19.00;42.50;;;;;;5000349;28;20466;-63
2022/12/01 03:38:51;;;;;;;6.70;6.10;;;19.00;42.50;;;;;;4998018;28;20454;-62
2022/12/01 03:41:23;;;;;;;6.73;6.23;;;19.00;42.50;;;;;;4988496;28;20522;-62
2022/12/01 03:44:00;;;;;;;8.63;6.87;;;19.00;42.50;;;;;;4985753;28;20508;-60
2022/12/01 03:46:39;;;;;;;7.10;6.50;;;19.00;42.50;;;;;;4999548;28;20424;-60
2022/12/01 03:49:07;;;;;;;7.40;6.70;;;19.00;42.50;;;;;;4981507;28;20424;-60
2022/12/01 03:51:55;;;;;;;7.50;6.80;;;19.00;42.50;;;;;;4981801;28;20498;-62
2022/12/01 03:54:26;;;;;;;6.90;6.20;;;19.00;42.50;;;;;;4982158;28;20493;-60
2022/12/01 03:56:58;;;;;;;6.97;6.37;;;19.10;42.50;;;;;;4981312;28;20452;-60
2022/12/01 03:59:26;;;;;;;7.00;6.50;;;19.00;42.50;;;;;;4981593;28;20457;-60
2022/12/01 04:01:52;;;;;;;7.97;7.17;;;19.00;42.40;;;;;;4978973;28;20436;-60
2022/12/01 04:04:17;;;;;;;7.87;7.13;;;19.00;42.50;;;;;;4984901;28;20492;-60
2022/12/01 04:06:47;;;;;;;7.13;6.53;;;19.00;42.50;;;;;;4985545;28;20226;-61
2022/12/01 04:09:13;;;;;;;7.17;6.40;;;19.00;42.40;;;;;;4984681;28;20231;-60
2022/12/01 04:14:23;;;;;;;7.43;6.80;;;19.00;42.50;;;;;;4986140;28;20444;-60
2022/12/01 04:16:48;;;;;;;8.63;7.70;;;19.00;42.40;;;;;;4984723;28;20838;-60
2022/12/01 04:19:14;;;;;;;8.90;7.20;;;19.00;42.50;;;;;;4984088;28;20243;-61
2022/12/01 04:21:40;;;;;;;7.67;6.97;;;19.00;42.40;;;;;;4984261;28;20232;-60
2022/12/01 04:24:05;;;;;;;7.63;6.83;;;19.00;42.50;;;;;;4986819;28;20211;-61
2022/12/01 04:26:34;;;;;;;8.23;7.43;;;19.00;42.40;;;;;;4989996;28;20215;-60
2022/12/01 04:29:04;;;;;;;8.00;7.27;;;19.00;42.40;;;;;;4988934;28;20223;-61
2022/12/01 04:31:30;;;;;;;6.77;6.17;;;19.00;42.40;;;;;;4978854;28;20435;-63
2022/12/01 04:33:56;;;;;;;7.60;6.97;;;19.00;42.40;;;;;;4983415;28;20444;-61
2022/12/01 04:36:23;;;;;;;7.60;6.90;;;19.00;42.30;;;;;;4984087;28;20430;-60
2022/12/01 04:38:48;;;;;;;7.87;7.10;;;19.00;42.40;;;;;;4979182;28;20465;-60
2022/12/01 04:41:14;;;;;;;7.57;6.87;;;19.00;42.40;;;;;;4980605;28;21088;-60
2022/12/01 04:43:40;;;;;;;7.93;7.23;;;19.00;42.30;;;;;;4979833;28;20306;-60
2022/12/01 04:46:06;;;;;;;7.60;6.90;;;19.00;42.40;;;;;;4983845;28;20446;-60
2022/12/01 04:48:36;;;;;;;7.20;6.60;;;19.00;42.30;;;;;;4978041;28;20255;-62
2022/12/01 04:51:03;;;;;;;7.57;6.87;;;19.10;42.40;;;;;;4981849;28;20508;-62
2022/12/01 04:53:30;;;;;;;8.07;7.33;;;19.00;42.40;;;;;;4983616;28;20533;-61
2022/12/01 04:55:55;;;;;;;8.20;7.10;;;19.00;42.30;;;;;;4980610;28;21087;-61
2022/12/01 04:58:21;;;;;;;6.93;6.33;;;19.10;42.40;;;;;;4988718;28;20891;-63
2022/12/01 05:00:46;;;;;;;7.83;7.10;;;19.00;42.30;;;;;;4989672;28;20242;-60
2022/12/01 05:03:12;;;;;;;8.20;7.40;;;19.10;42.40;;;;;;4980886;28;20302;-60
2022/12/01 05:05:38;;;;;;;8.47;7.57;;;19.10;42.30;;;;;;4975568;28;20243;-61
2022/12/01 05:08:03;;;;;;;6.83;6.27;;;19.10;42.30;;;;;;4985343;28;20216;-63
2022/12/01 05:10:29;;;;;;;7.27;6.60;;;19.10;42.30;;;;;;4976066;28;20236;-61
2022/12/01 05:12:56;;;;;;;7.60;6.90;;;19.10;42.30;;;;;;4979154;28;20232;-62
2022/12/01 05:15:22;;;;;;;7.30;6.60;;;19.10;42.20;;;;;;4979378;28;20220;-60
2022/12/01 05:17:47;;;;;;;7.80;7.10;;;19.10;42.20;;;;;;4999925;28;20432;-61
2022/12/01 05:23:05;;;;;;;8.03;7.33;;;19.10;42.20;;;;;;4984342;28;20280;-62
2022/12/01 05:25:32;;;;;;;7.03;6.33;;;19.20;42.20;;;;;;4980152;28;20537;-60
2022/12/01 05:27:57;;;;;;;7.83;7.23;;;19.20;42.30;;;;;;4972568;28;20255;-62
2022/12/01 05:30:23;;;;;;;8.47;7.57;;;19.20;42.10;;;;;;4979731;28;20575;-60
2022/12/01 05:32:49;;;;;;;7.50;6.90;;;19.20;42.10;;;;;;4996725;28;20904;-64
2022/12/01 05:35:14;;;;;;;7.47;6.77;;;19.20;42.00;;;;;;4992037;28;20223;-61
2022/12/01 05:37:40;;;;;;;6.73;6.10;;;19.20;42.00;;;;;;4990415;28;20208;-63
2022/12/01 05:40:06;;;;;;;7.60;6.90;;;19.20;41.90;;;;;;4986799;28;20243;-63
2022/12/01 05:42:32;;;;;;;9.40;6.60;;;19.30;42.00;;;;;;4978922;28;20228;-62
2022/12/01 05:44:57;;;;;;;7.23;6.50;;;19.30;42.00;;;;;;4996464;28;20419;-62
2022/12/01 05:47:23;;;;;;;7.20;6.60;;;19.20;41.90;;;;;;4995586;28;20278;-64
2022/12/01 05:49:49;;;;;;;6.80;6.23;;;19.30;42.00;;;;;;4997228;28;20769;-62
2022/12/01 05:52:14;;;;;;;6.53;6.03;;;19.20;41.90;;;;;;4994114;28;20230;-62
2022/12/01 05:54:40;;;;;;;7.57;6.87;;;19.20;42.00;;;;;;5000117;28;20456;-62
2022/12/01 05:57:05;;;;;;;6.90;6.30;;;19.30;42.00;;;;;;4978808;28;20258;-63
2022/12/01 05:59:31;;;;;;;7.10;6.60;;;19.30;42.00;;;;;;4985141;28;20319;-63
2022/12/01 06:01:56;;;;;;;8.63;6.93;;;19.20;42.00;;;;;;4991674;28;20232;-63
2022/12/01 06:04:23;;;;;;;7.57;6.83;;;19.30;42.00;;;;;;4975693;28;20223;-66
2022/12/01 06:06:48;;;;;;;7.20;6.50;;;19.30;42.10;;;;;;4980839;28;20687;-61
2022/12/01 06:09:14;;;;;;;7.37;6.70;;;19.20;42.10;;;;;;4982469;28;20436;-65
2022/12/01 06:11:40;;;;;;;7.23;6.53;;;19.30;42.10;;;;;;4979261;28;20647;-67
2022/12/01 06:14:05;;;;;;;6.90;6.33;;;19.30;42.10;;;;;;4973716;28;20270;-67
2022/12/01 06:16:31;;;;;;;7.77;6.20;;;19.30;42.10;;;;;;4982449;28;20216;-66
2022/12/01 06:18:56;;;;;;;7.47;6.83;;;19.30;42.10;;;;;;4994884;28;20771;-66
2022/12/01 06:21:22;;;;;;;6.70;6.10;;;19.30;42.10;;;;;;4971685;28;21180;-64
2022/12/01 06:23:47;;;;;;;7.77;7.10;;;19.30;42.10;;;;;;4971701;28;20228;-60
2022/12/01 06:26:13;;;;;;;8.00;7.27;;;19.30;42.10;;;;;;4976690;28;20216;-61
2022/12/01 06:28:38;;;;;;;6.70;6.10;;;19.30;42.10;;;;;;4988890;28;20650;-62
2022/12/01 06:31:04;;;;;;;8.20;7.17;;;19.30;42.10;;;;;;4985520;28;20224;-63
2022/12/01 06:33:30;;;;;;;6.63;6.10;;;19.30;42.10;;;;;;4984681;28;20291;-62
2022/12/01 06:35:58;;;;;;;6.57;6.07;;;19.30;42.10;;;;;;4983354;28;20242;-64
2022/12/01 06:38:23;;;;;;;7.23;6.63;;;19.30;42.10;;;;;;4985627;28;20471;-62
2022/12/01 06:40:49;;;;;;;7.93;7.13;;;19.30;42.10;;;;;;4979798;28;20459;-62
2022/12/01 06:43:14;;;;;;;7.90;7.10;;;19.30;42.20;;;;;;4986807;28;20220;-62
2022/12/01 06:45:40;;;;;;;6.57;6.00;;;19.30;42.20;;;;;;4993720;28;20220;-62
2022/12/01 06:48:05;;;;;;;7.27;6.57;;;19.30;42.10;;;;;;4984139;28;20753;-63
2022/12/01 06:50:31;;;;;;;6.87;6.33;;;19.30;42.10;;;;;;4986572;28;20350;-62
2022/12/01 06:52:56;;;;;;;6.73;6.20;;;19.30;42.20;;;;;;4993321;28;20667;-62
2022/12/01 06:55:22;;;;;;;7.73;6.90;;;19.30;42.20;;;;;;4999535;28;22785;-63
2022/12/01 06:57:48;;;;;;;7.67;6.97;;;19.20;42.10;;;;;;4996285;28;20659;-63
2022/12/01 07:00:14;;;;;;;7.20;6.50;;;19.30;42.20;;;;;;4996799;28;20223;-63
2022/12/01 07:02:39;;;;;;;7.00;6.40;;;19.30;42.20;;;;;;4998527;28;20315;-62
2022/12/01 07:05:05;;;;;;;7.53;6.83;;;19.30;42.20;;;;;;5003935;28;20473;-66
2022/12/01 07:07:31;;;;;;;7.03;6.37;;;19.30;42.30;;;;;;5003888;28;20294;-62
2022/12/01 07:09:56;;;;;;;7.03;6.43;;;19.30;42.20;;;;;;4987814;28;20235;-62
2022/12/01 07:12:22;;;;;;;7.40;6.80;;;19.30;42.30;;;;;;4987464;28;20226;-62
2022/12/01 07:14:47;;;;;;;8.07;7.27;;;19.30;42.20;;;;;;4981840;28;20346;-62
2022/12/01 07:17:13;;;;;;;6.80;6.30;;;19.30;42.90;;;;;;4982584;28;20764;-62
2022/12/01 07:19:38;;;;;;;7.10;6.50;;;19.30;42.20;;;;;;4983715;28;20228;-62
2022/12/01 07:22:04;;;;;;;7.03;6.30;;;19.30;42.20;;;;;;4986166;28;20216;-62
2022/12/01 07:24:29;;;;;;;7.83;7.10;;;19.30;42.20;;;;;;4982254;28;20220;-62
2022/12/01 07:26:55;;;;;;;7.83;7.00;;;19.30;42.20;;;;;;4978531;28;20229;-62
2022/12/01 07:29:20;;;;;;;7.40;6.80;;;19.30;42.20;;;;;;4978411;28;20220;-62
2022/12/01 07:31:46;;;;;;;7.70;7.00;;;19.20;42.20;;;;;;4981449;28;20219;-62
2022/12/01 07:34:12;;;;;;;7.90;7.10;;;19.30;42.20;;;;;;4984083;28;20254;-63
2022/12/01 07:36:38;;;;;;;7.60;6.70;;;19.30;42.20;;;;;;4987864;28;20283;-62
2022/12/01 07:39:06;;;;;;;8.10;7.00;;;19.30;42.20;;;;;;4988672;28;20544;-63
2022/12/01 07:41:32;;;;;;;8.57;7.10;;;19.30;42.20;;;;;;5001614;28;20238;-62
2022/12/01 07:43:57;;;;;;;7.10;6.50;;;19.30;42.20;;;;;;4999300;28;20471;-62
2022/12/01 07:46:25;;;;;;;7.63;7.00;;;19.30;42.20;;;;;;5001936;28;20222;-62
2022/12/01 07:48:52;;;;;;;7.90;7.20;;;19.30;42.20;;;;;;4998211;28;20227;-62
2022/12/01 07:51:19;;;;;;;7.93;7.13;;;19.30;42.20;;;;;;4995044;28;20427;-63
2022/12/01 07:53:46;;;;;;;7.90;7.20;;;19.30;42.20;;;;;;5000664;28;20447;-62
2022/12/01 07:56:12;;;;;;;7.47;6.73;;;19.30;42.20;;;;;;4997932;28;20468;-62
2022/12/01 07:58:38;;;;;;;8.07;7.33;;;19.30;42.20;;;;;;5001075;28;20436;-62
2022/12/01 08:01:08;;;;;;;7.17;6.67;;;19.30;42.20;;;;;;5000681;28;20722;-62
2022/12/01 08:03:35;;;;;;;7.30;6.60;;;19.30;42.20;;;;;;4978561;28;20311;-62
2022/12/01 08:06:01;;;;;;;7.00;6.40;;;19.30;42.20;;;;;;4987531;28;20454;-63
2022/12/01 08:08:28;;;;;;;8.00;7.30;;;19.30;42.20;;;;;;4984094;28;20506;-62
2022/12/01 08:10:59;;;;;;;7.20;6.60;;;19.30;42.30;;;;;;4983193;28;20481;-63
2022/12/01 08:13:25;;;;;;;6.97;6.40;;;19.30;42.20;;;;;;4984451;28;20455;-62
2022/12/01 08:15:50;;;;;;;7.77;7.07;;;19.30;42.30;;;;;;4978404;28;21300;-62
2022/12/01 08:18:16;;;;;;;7.67;6.93;;;19.30;42.30;;;;;;4983237;28;20258;-63
2022/12/01 08:20:41;;;;;;;7.23;6.60;;;19.30;42.20;;;;;;4983426;28;20232;-63
2022/12/01 08:23:07;;;;;;;7.50;6.80;;;19.30;42.30;;;;;;4979203;28;20220;-62
2022/12/01 08:25:33;;;;;;;8.37;7.57;;;19.30;42.20;;;;;;4983074;28;20233;-62
2022/12/01 08:27:59;;;;;;;7.63;6.93;;;19.30;42.30;;;;;;4990625;28;20221;-62
2022/12/01 08:30:25;;;;;;;7.60;6.77;;;19.20;42.20;;;;;;4990461;28;20354;-63
2022/12/01 08:32:55;;;;;;;7.43;6.63;;;19.30;42.30;;;;;;4996596;28;20906;-62
2022/12/01 08:35:21;;;;;;;8.10;7.30;;;19.20;42.20;;;;;;4997638;28;20223;-62
2022/12/01 08:37:46;;;;;;;7.60;6.90;;;19.30;42.30;;;;;;4997438;28;20435;-63
2022/12/01 08:40:12;;;;;;;7.70;6.93;;;19.30;42.30;;;;;;5000870;28;20243;-63
2022/12/01 08:42:38;;;;;;;8.33;7.57;;;19.20;42.20;;;;;;5001850;28;20683;-62
2022/12/01 08:45:04;;;;;;;9.70;7.33;;;19.20;42.20;;;;;;4996581;28;20606;-62
2022/12/01 08:47:29;;;;;;;7.23;6.53;;;19.30;42.30;;;;;;4983106;28;20272;-62
2022/12/01 08:49:55;;;;;;;6.90;6.20;;;19.20;42.20;;;;;;4978243;28;20488;-63
2022/12/01 08:52:21;;;;;;;8.13;7.30;;;19.20;42.20;;;;;;4987757;28;20299;-62
2022/12/01 08:54:46;;;;;;;7.80;7.20;;;19.30;42.30;;;;;;4983408;28;20219;-62
2022/12/01 08:57:12;;;;;;;7.73;7.03;;;19.30;42.30;;;;;;4978231;28;20217;-64
2022/12/01 08:59:38;;;;;;;7.37;6.67;;;19.30;42.30;;;;;;4980299;28;20224;-63
2022/12/01 09:02:05;;;;;;;10.00;7.70;;;19.20;42.20;;;;;;4977075;28;20681;-63
2022/12/01 09:04:31;;;;;;;9.37;7.73;;;19.20;42.20;;;;;;4979625;28;20278;-64
2022/12/01 09:06:56;;;;;;;7.67;6.97;;;19.20;42.20;;;;;;4992644;28;20431;-63
2022/12/01 09:09:25;;;;;;;7.87;7.17;;;19.20;42.20;;;;;;5000705;28;20330;-62
2022/12/01 09:11:51;;;;;;;7.83;7.13;;;19.20;42.20;;;;;;4999098;28;20302;-63
2022/12/01 09:14:18;;;;;;;7.23;6.53;;;19.20;42.30;;;;;;5000504;28;21060;-63
2022/12/01 09:16:45;;;;;;;7.63;6.93;;;19.20;42.20;;;;;;4992916;28;20772;-62
2022/12/01 09:19:11;;;;;;;8.53;7.50;;;19.20;42.20;;;;;;4979806;28;20444;-63
2022/12/01 09:21:37;;;;;;;9.60;7.43;;;19.20;42.20;;;;;;4987335;28;20466;-63
2022/12/01 09:24:04;;;;;;;9.23;7.70;;;19.20;42.30;;;;;;4978313;28;21144;-63
2022/12/01 09:26:30;;;;;;;8.37;7.03;;;19.20;42.20;;;;;;4976141;28;20224;-63
2022/12/01 09:28:58;;;;;;;7.87;7.13;;;19.20;42.30;;;;;;4978353;28;20437;-63
2022/12/01 09:31:24;;;;;;;8.73;7.93;;;19.20;42.30;;;;;;4978092;28;20236;-62
2022/12/01 09:34:00;;;;;;;8.40;7.70;;;19.20;42.20;;;;;;4977448;28;20432;-62
2022/12/01 09:36:26;;;;;;;8.50;7.33;;;19.20;42.30;;;;;;4994698;28;20229;-63
2022/12/01 09:38:52;;;;;;;7.73;7.03;;;19.20;42.30;;;;;;5013801;28;20515;-62
2022/12/01 09:41:34;;;;;;;7.67;6.93;;;19.20;42.30;;;;;;4998051;28;20457;-62
2022/12/01 09:44:06;;;;;;;8.93;8.03;;;19.20;42.30;;;;;;4996625;28;20813;-63
2022/12/01 09:46:40;;;;;;;7.70;7.00;;;19.20;42.30;;;;;;4983746;28;20792;-63
2022/12/01 09:49:21;;;;;;;7.83;6.87;;;19.20;42.30;;;;;;4988941;28;20958;-64
2022/12/01 09:51:48;;;;;;;7.60;7.00;;;19.20;42.30;;;;;;4989156;28;20456;-63
2022/12/01 09:54:13;;;;;;;8.57;7.50;;;19.20;42.30;;;;;;4989452;28;20512;-62
2022/12/01 09:56:51;;;;;;;8.17;7.47;;;19.20;42.60;;;;;;4980964;28;20444;-63
2022/12/01 09:59:23;;;;;;;10.10;8.47;;;19.20;42.30;;;;;;4982570;28;20664;-63
2022/12/01 10:01:55;;;;;;;8.50;7.70;;;19.20;42.30;;;;;;4978696;28;21089;-63
2022/12/01 10:04:37;;;;;;;8.83;7.93;;;19.20;42.40;;;;;;4979118;28;20487;-63
2022/12/01 10:07:10;;;;;;;8.47;7.57;;;19.20;42.30;;;;;;4980253;28;20515;-63
2022/12/01 10:09:54;;;;;;;8.70;7.13;;;19.20;42.40;;;;;;4981799;28;20429;-63
2022/12/01 10:12:26;;;;;;;7.90;7.20;;;19.20;42.30;;;;;;4998998;28;20438;-63
2022/12/01 10:14:53;;;;;;;7.80;7.10;;;19.20;42.30;;;;;;4989490;28;20804;-63
2022/12/01 10:17:29;;;;;;;7.87;7.13;;;19.20;42.30;;;;;;4978620;28;20429;-63
2022/12/01 10:20:12;;;;;;;8.50;7.57;;;19.20;43.20;;;;;;4990671;28;24545;-62
2022/12/01 10:22:47;;;;;;;7.63;7.07;;;19.20;42.30;;;;;;4982375;28;20442;-62
2022/12/01 10:25:23;;;;;;;9.60;7.50;;;19.20;42.30;;;;;;4988423;28;20476;-63
2022/12/01 10:27:57;;;;;;;8.10;6.87;;;19.20;42.30;;;;;;4990614;28;20437;-63
2022/12/01 10:30:23;;;;;;;8.40;7.60;;;19.20;42.40;;;;;;4983002;28;20458;-63
2022/12/01 10:32:53;;;;;;;8.13;7.33;;;19.20;42.40;;;;;;4986198;28;20457;-63
2022/12/01 10:35:23;;;;;;;7.50;6.80;;;19.20;43.10;;;;;;4979184;28;20454;-63
2022/12/01 10:37:56;;;;;;;7.63;6.93;;;19.20;42.40;;;;;;4985331;28;20536;-63
2022/12/01 10:40:22;;;;;;;8.27;7.53;;;19.20;42.30;;;;;;4984176;28;20436;-62
2022/12/01 10:42:49;;;;;;;8.60;7.70;;;19.20;42.40;;;;;;4978006;28;20775;-63
2022/12/01 10:45:20;;;;;;;8.03;7.33;;;19.20;43.10;;;;;;4987451;28;20535;-62
2022/12/01 10:48:14;;;;;;;8.40;7.60;;;19.20;42.40;;;;;;4987241;28;20452;-62
2022/12/01 10:50:45;;;;;;;7.90;7.20;;;19.20;42.30;;;;;;4985139;28;20460;-62
2022/12/01 10:53:26;;;;;;;7.10;6.50;;;19.20;42.40;;;;;;4983781;28;20855;-62
2022/12/01 10:56:13;;;;;;;7.63;6.93;;;19.20;42.30;;;;;;4986192;28;20446;-62
2022/12/01 10:58:46;;;;;;;8.73;7.83;;;19.20;42.40;;;;;;5000990;28;20511;-63
2022/12/01 11:01:27;;;;;;;9.97;8.17;;;19.20;42.40;;;;;;4992347;28;20465;-63
2022/12/01 11:03:57;;;;;;;7.27;6.67;;;19.20;42.50;;;;;;4982201;28;20488;-62
2022/12/01 11:06:26;;;;;;;9.10;8.20;;;19.20;42.40;;;;;;4990604;28;20461;-62
2022/12/01 11:09:02;;;;;;;7.57;6.80;;;19.20;42.40;;;;;;5001356;28;20581;-62
2022/12/01 11:11:39;;;;;;;8.07;7.47;;;19.20;42.40;;;;;;4986988;28;20447;-62
2022/12/01 11:14:43;;;;;;;9.03;8.17;;;19.10;42.40;;;;;;4980204;28;20747;-62
2022/12/01 11:17:34;;;;;;;8.00;7.20;;;19.20;42.40;;;;;;4978247;28;20785;-62
2022/12/01 11:20:27;;;;;;;8.17;7.37;;;19.20;42.50;;;;;;4995753;28;20439;-63
2022/12/01 11:23:17;;;;;;;8.70;7.90;;;19.20;42.50;;;;;;5001942;28;20478;-63
2022/12/01 11:26:10;;;;;;;8.30;7.50;;;19.10;42.40;;;;;;5000787;28;20471;-63
2022/12/01 11:28:40;;;;;;;7.73;7.03;;;19.10;42.40;;;;;;4996437;28;20430;-64
2022/12/01 11:31:08;;;;;;;7.83;7.20;;;19.20;42.50;;;;;;5004737;28;20447;-63
2022/12/01 11:33:44;;;;;;;7.53;6.93;;;19.20;42.60;;;;;;5001617;28;20439;-63
2022/12/01 11:36:17;;;;;;;8.00;7.30;;;19.20;42.40;;;;;;4983865;28;20455;-62
2022/12/01 11:38:43;;;;;;;7.47;6.77;;;19.20;42.50;;;;;;4982497;28;20454;-62
2022/12/01 11:41:25;;;;;;;8.37;7.57;;;19.10;42.40;;;;;;4984189;28;20435;-63
2022/12/01 11:43:51;;;;;;;8.10;7.37;;;19.20;42.40;;;;;;4980623;28;20679;-62
2022/12/01 11:46:27;;;;;;;8.00;7.20;;;19.20;42.50;;;;;;4982732;28;20429;-64
2022/12/01 11:48:57;;;;;;;7.87;7.10;;;19.20;42.50;;;;;;4979720;28;20271;-62
2022/12/01 11:51:26;;;;;;;8.00;7.20;;;19.20;42.50;;;;;;4984423;28;20917;-62
2022/12/01 11:54:06;;;;;;;8.03;7.23;;;19.20;42.50;;;;;;4979995;28;20429;-63
2022/12/01 11:56:32;;;;;;;7.00;6.50;;;19.20;42.50;;;;;;4991099;28;21241;-62
2022/12/01 11:59:14;;;;;;;8.57;7.30;;;19.20;42.50;;;;;;4982616;28;20409;-62
2022/12/01 12:01:59;;;;;;;8.80;7.40;;;19.20;42.50;;;;;;4982356;28;20915;-63
2022/12/01 12:04:54;;;;;;;7.77;7.07;;;19.20;42.50;;;;;;4986847;28;21335;-62
2022/12/01 12:07:41;;;;;;;9.90;7.90;;;19.20;42.50;;;;;;5000543;28;21024;-62
2022/12/01 12:10:35;;;;;;;7.47;6.77;;;19.20;42.50;;;;;;4992155;28;20475;-62
2022/12/01 12:13:25;;;;;;;8.23;7.43;;;19.10;42.40;;;;;;5001167;28;20977;-63
2022/12/01 12:16:10;;;;;;;7.93;7.33;;;19.10;42.40;;;;;;4976353;28;20460;-62
2022/12/01 12:19:01;;;;;;;7.90;7.20;;;19.10;42.40;;;;;;4997335;28;20416;-63
2022/12/01 12:21:42;;;;;;;8.50;7.80;;;19.10;42.40;;;;;;4992327;28;20429;-62
2022/12/01 12:24:13;;;;;;;7.43;6.83;;;19.10;42.40;;;;;;4982101;28;20458;-63
2022/12/01 12:27:03;;;;;;;8.73;7.30;;;19.10;42.40;;;;;;4976828;28;20424;-62
2022/12/01 12:29:47;;;;;;;8.17;7.37;;;19.10;42.40;;;;;;4992799;28;21003;-63
2022/12/01 12:32:37;;;;;;;8.53;7.67;;;19.10;42.40;;;;;;4980826;28;20416;-62
2022/12/01 12:35:21;;;;;;;6.90;6.40;;;19.10;42.40;;;;;;4996046;28;20425;-62
2022/12/01 12:38:07;;;;;;;7.50;6.80;;;19.10;42.40;;;;;;4999690;28;20533;-62
2022/12/01 12:40:45;;;;;;;7.17;6.57;;;19.10;42.50;;;;;;4986774;28;20467;-62
2022/12/01 12:43:35;;;;;;;7.03;6.53;;;19.10;42.50;;;;;;4985491;28;20512;-63
2022/12/01 12:46:40;;;;;;;7.87;7.17;;;19.10;42.40;;;;;;4981590;28;20867;-62
2022/12/01 12:49:43;;;;;;;6.97;6.37;;;19.20;42.60;;;;;;4997317;28;20411;-64
2022/12/01 12:52:33;;;;;;;7.13;6.53;;;19.10;42.50;;;;;;4984951;28;20883;-63
2022/12/01 12:55:10;;;;;;;6.60;6.10;;;19.10;42.50;;;;;;4989306;28;20941;-63
2022/12/01 12:57:44;;;;;;;6.57;6.03;;;19.10;42.50;;;;;;4999175;28;20482;-63
2022/12/01 13:00:15;;;;;;;7.03;6.50;;;19.10;42.50;;;;;;5000667;28;20540;-62
2022/12/01 13:02:49;;;;;;;7.30;6.60;;;19.10;42.50;;;;;;5000713;28;20910;-62
2022/12/01 13:05:27;;;;;;;6.33;5.83;;;19.10;42.50;;;;;;4982939;28;20556;-62
2022/12/01 13:08:04;;;;;;;7.30;6.80;;;19.10;42.50;;;;;;4992990;28;20440;-62
2022/12/01 13:10:46;;;;;;;6.77;6.27;;;19.10;42.50;;;;;;4979898;28;20500;-62
2022/12/01 13:13:26;;;;;;;7.93;7.23;;;19.10;42.40;;;;;;4980536;28;20452;-63